sensor_id;sensor_type;location;lat;lon;timestamp;P1;durP1;ratioP1;P2;durP2;ratioP2
41964;SDS011;50120;53.250;8.702;2022-10-31T00:01:10;42.58;;;22.77;;
41964;SDS011;50120;53.250;8.702;2022-10-31T00:03:41;47.53;;;22.33;;
41964;SDS011;50120;53.250;8.702;2022-10-31T00:06:06;47.05;;;22.52;;
41964;SDS011;50120;53.250;8.702;2022-10-31T00:08:32;50.28;;;23.83;;
41964;SDS011;50120;53.250;8.702;2022-10-31T00:10:58;45.05;;;22.42;;
41964;SDS011;50120;53.250;8.702;2022-10-31T00:13:24;40.90;;;23.38;;
41964;SDS011;50120;53.250;8.702;2022-10-31T00:15:51;43.10;;;21.70;;
41964;SDS011;50120;53.250;8.702;2022-10-31T00:18:17;35.63;;;20.17;;
41964;SDS011;50120;53.250;8.702;2022-10-31T00:20:42;39.65;;;20.75;;
41964;SDS011;50120;53.250;8.702;2022-10-31T00:23:08;40.22;;;20.92;;
41964;SDS011;50120;53.250;8.702;2022-10-31T00:25:36;45.00;;;20.85;;
41964;SDS011;50120;53.250;8.702;2022-10-31T00:28:04;40.13;;;20.13;;
41964;SDS011;50120;53.250;8.702;2022-10-31T00:30:31;45.90;;;20.13;;
41964;SDS011;50120;53.250;8.702;2022-10-31T00:32:57;35.33;;;19.35;;
41964;SDS011;50120;53.250;8.702;2022-10-31T00:35:23;41.17;;;19.95;;
41964;SDS011;50120;53.250;8.702;2022-10-31T00:37:48;38.90;;;19.55;;
41964;SDS011;50120;53.250;8.702;2022-10-31T00:40:14;36.85;;;19.73;;
41964;SDS011;50120;53.250;8.702;2022-10-31T00:42:40;36.33;;;18.05;;
41964;SDS011;50120;53.250;8.702;2022-10-31T00:45:07;39.28;;;18.77;;
41964;SDS011;50120;53.250;8.702;2022-10-31T00:47:34;45.00;;;19.10;;
41964;SDS011;50120;53.250;8.702;2022-10-31T00:49:59;38.42;;;17.77;;
41964;SDS011;50120;53.250;8.702;2022-10-31T00:52:25;42.45;;;19.30;;
41964;SDS011;50120;53.250;8.702;2022-10-31T00:54:51;42.50;;;19.13;;
41964;SDS011;50120;53.250;8.702;2022-10-31T00:57:16;39.63;;;20.75;;
41964;SDS011;50120;53.250;8.702;2022-10-31T00:59:42;39.15;;;20.20;;
41964;SDS011;50120;53.250;8.702;2022-10-31T01:02:08;40.83;;;20.23;;
41964;SDS011;50120;53.250;8.702;2022-10-31T01:04:33;39.03;;;18.65;;
41964;SDS011;50120;53.250;8.702;2022-10-31T01:06:59;40.78;;;20.52;;
41964;SDS011;50120;53.250;8.702;2022-10-31T01:09:25;42.63;;;21.27;;
41964;SDS011;50120;53.250;8.702;2022-10-31T01:11:50;40.35;;;19.90;;
41964;SDS011;50120;53.250;8.702;2022-10-31T01:14:16;43.50;;;20.58;;
41964;SDS011;50120;53.250;8.702;2022-10-31T01:16:42;41.42;;;20.45;;
41964;SDS011;50120;53.250;8.702;2022-10-31T01:19:07;46.17;;;21.10;;
41964;SDS011;50120;53.250;8.702;2022-10-31T01:21:33;40.22;;;21.63;;
41964;SDS011;50120;53.250;8.702;2022-10-31T01:23:59;48.53;;;21.90;;
41964;SDS011;50120;53.250;8.702;2022-10-31T01:26:28;43.08;;;22.33;;
41964;SDS011;50120;53.250;8.702;2022-10-31T01:28:56;48.08;;;21.40;;
41964;SDS011;50120;53.250;8.702;2022-10-31T01:31:26;40.53;;;21.00;;
41964;SDS011;50120;53.250;8.702;2022-10-31T01:33:53;46.00;;;21.50;;
41964;SDS011;50120;53.250;8.702;2022-10-31T01:36:22;45.35;;;21.25;;
41964;SDS011;50120;53.250;8.702;2022-10-31T01:38:50;44.70;;;21.27;;
41964;SDS011;50120;53.250;8.702;2022-10-31T01:41:18;42.75;;;22.02;;
41964;SDS011;50120;53.250;8.702;2022-10-31T01:43:47;39.75;;;20.90;;
41964;SDS011;50120;53.250;8.702;2022-10-31T01:46:14;42.58;;;20.88;;
41964;SDS011;50120;53.250;8.702;2022-10-31T01:48:44;37.30;;;19.65;;
41964;SDS011;50120;53.250;8.702;2022-10-31T01:51:11;35.03;;;19.42;;
41964;SDS011;50120;53.250;8.702;2022-10-31T01:53:39;43.88;;;20.30;;
41964;SDS011;50120;53.250;8.702;2022-10-31T01:56:07;44.63;;;19.75;;
41964;SDS011;50120;53.250;8.702;2022-10-31T01:58:33;37.90;;;19.73;;
41964;SDS011;50120;53.250;8.702;2022-10-31T02:01:00;44.08;;;19.85;;
41964;SDS011;50120;53.250;8.702;2022-10-31T02:03:27;35.95;;;19.35;;
41964;SDS011;50120;53.250;8.702;2022-10-31T02:05:54;44.25;;;21.42;;
41964;SDS011;50120;53.250;8.702;2022-10-31T02:08:29;41.38;;;21.33;;
41964;SDS011;50120;53.250;8.702;2022-10-31T02:13:24;40.55;;;21.20;;
41964;SDS011;50120;53.250;8.702;2022-10-31T02:15:54;43.13;;;20.83;;
41964;SDS011;50120;53.250;8.702;2022-10-31T02:18:21;47.20;;;22.02;;
41964;SDS011;50120;53.250;8.702;2022-10-31T02:32:13;42.45;;;22.17;;
41964;SDS011;50120;53.250;8.702;2022-10-31T02:43:19;45.50;;;22.50;;
41964;SDS011;50120;53.250;8.702;2022-10-31T02:48:27;40.78;;;20.25;;
41964;SDS011;50120;53.250;8.702;2022-10-31T02:50:57;37.28;;;19.13;;
41964;SDS011;50120;53.250;8.702;2022-10-31T02:53:25;41.95;;;21.52;;
41964;SDS011;50120;53.250;8.702;2022-10-31T02:58:42;41.00;;;20.55;;
41964;SDS011;50120;53.250;8.702;2022-10-31T03:01:25;42.97;;;20.80;;
41964;SDS011;50120;53.250;8.702;2022-10-31T03:04:13;41.47;;;21.40;;
41964;SDS011;50120;53.250;8.702;2022-10-31T03:10:00;43.25;;;22.20;;
41964;SDS011;50120;53.250;8.702;2022-10-31T03:12:39;43.83;;;21.60;;
41964;SDS011;50120;53.250;8.702;2022-10-31T03:15:14;46.83;;;22.52;;
41964;SDS011;50120;53.250;8.702;2022-10-31T03:18:02;33.67;;;15.80;;
41964;SDS011;50120;53.250;8.702;2022-10-31T03:20:37;41.65;;;21.73;;
41964;SDS011;50120;53.250;8.702;2022-10-31T03:23:08;42.58;;;20.85;;
41964;SDS011;50120;53.250;8.702;2022-10-31T03:25:39;38.88;;;20.58;;
41964;SDS011;50120;53.250;8.702;2022-10-31T03:28:06;43.30;;;21.02;;
41964;SDS011;50120;53.250;8.702;2022-10-31T03:30:35;41.72;;;21.75;;
41964;SDS011;50120;53.250;8.702;2022-10-31T03:33:04;39.92;;;21.88;;
41964;SDS011;50120;53.250;8.702;2022-10-31T03:35:34;47.17;;;22.52;;
41964;SDS011;50120;53.250;8.702;2022-10-31T03:38:03;44.20;;;22.45;;
41964;SDS011;50120;53.250;8.702;2022-10-31T03:40:30;42.63;;;22.73;;
41964;SDS011;50120;53.250;8.702;2022-10-31T03:43:00;44.35;;;22.75;;
41964;SDS011;50120;53.250;8.702;2022-10-31T03:45:32;41.70;;;22.02;;
41964;SDS011;50120;53.250;8.702;2022-10-31T03:48:05;43.13;;;22.30;;
41964;SDS011;50120;53.250;8.702;2022-10-31T03:50:38;40.88;;;22.40;;
41964;SDS011;50120;53.250;8.702;2022-10-31T03:53:16;37.05;;;20.98;;
41964;SDS011;50120;53.250;8.702;2022-10-31T03:55:50;41.10;;;22.70;;
41964;SDS011;50120;53.250;8.702;2022-10-31T03:58:23;46.70;;;23.75;;
41964;SDS011;50120;53.250;8.702;2022-10-31T04:00:52;46.83;;;22.85;;
41964;SDS011;50120;53.250;8.702;2022-10-31T04:03:22;43.63;;;21.65;;
41964;SDS011;50120;53.250;8.702;2022-10-31T04:05:52;42.08;;;22.92;;
41964;SDS011;50120;53.250;8.702;2022-10-31T04:08:22;41.72;;;22.73;;
41964;SDS011;50120;53.250;8.702;2022-10-31T04:10:51;41.33;;;23.52;;
41964;SDS011;50120;53.250;8.702;2022-10-31T04:13:20;49.30;;;23.02;;
41964;SDS011;50120;53.250;8.702;2022-10-31T04:15:51;36.92;;;22.30;;
41964;SDS011;50120;53.250;8.702;2022-10-31T04:18:19;40.53;;;21.92;;
41964;SDS011;50120;53.250;8.702;2022-10-31T04:20:44;39.58;;;21.27;;
41964;SDS011;50120;53.250;8.702;2022-10-31T04:23:24;68.03;;;22.65;;
41964;SDS011;50120;53.250;8.702;2022-10-31T04:25:51;65.97;;;20.85;;
41964;SDS011;50120;53.250;8.702;2022-10-31T04:28:17;49.30;;;20.58;;
41964;SDS011;50120;53.250;8.702;2022-10-31T04:30:43;44.83;;;20.27;;
41964;SDS011;50120;53.250;8.702;2022-10-31T04:33:08;61.92;;;20.67;;
41964;SDS011;50120;53.250;8.702;2022-10-31T04:35:34;36.40;;;21.08;;
41964;SDS011;50120;53.250;8.702;2022-10-31T04:38:00;35.25;;;19.83;;
41964;SDS011;50120;53.250;8.702;2022-10-31T04:40:26;49.13;;;19.42;;
41964;SDS011;50120;53.250;8.702;2022-10-31T04:42:51;73.68;;;21.33;;
41964;SDS011;50120;53.250;8.702;2022-10-31T04:45:17;44.33;;;19.42;;
41964;SDS011;50120;53.250;8.702;2022-10-31T04:47:43;53.92;;;19.08;;
41964;SDS011;50120;53.250;8.702;2022-10-31T04:50:08;60.78;;;21.27;;
41964;SDS011;50120;53.250;8.702;2022-10-31T04:52:44;34.03;;;19.90;;
41964;SDS011;50120;53.250;8.702;2022-10-31T04:55:11;35.92;;;19.73;;
41964;SDS011;50120;53.250;8.702;2022-10-31T04:57:45;42.25;;;21.52;;
41964;SDS011;50120;53.250;8.702;2022-10-31T05:00:13;60.58;;;22.58;;
41964;SDS011;50120;53.250;8.702;2022-10-31T05:02:50;43.85;;;21.95;;
41964;SDS011;50120;53.250;8.702;2022-10-31T05:05:18;52.67;;;21.65;;
41964;SDS011;50120;53.250;8.702;2022-10-31T05:07:46;51.15;;;22.08;;
41964;SDS011;50120;53.250;8.702;2022-10-31T05:10:13;48.47;;;22.05;;
41964;SDS011;50120;53.250;8.702;2022-10-31T05:12:48;48.30;;;22.08;;
41964;SDS011;50120;53.250;8.702;2022-10-31T05:15:15;100.35;;;24.73;;
41964;SDS011;50120;53.250;8.702;2022-10-31T05:17:42;68.90;;;23.35;;
41964;SDS011;50120;53.250;8.702;2022-10-31T05:20:09;50.60;;;22.67;;
41964;SDS011;50120;53.250;8.702;2022-10-31T05:22:48;56.15;;;21.30;;
41964;SDS011;50120;53.250;8.702;2022-10-31T05:25:15;118.82;;;25.50;;
41964;SDS011;50120;53.250;8.702;2022-10-31T05:27:43;111.28;;;23.58;;
41964;SDS011;50120;53.250;8.702;2022-10-31T05:30:13;65.30;;;21.08;;
41964;SDS011;50120;53.250;8.702;2022-10-31T05:32:41;60.13;;;21.77;;
41964;SDS011;50120;53.250;8.702;2022-10-31T05:35:10;52.42;;;21.88;;
41964;SDS011;50120;53.250;8.702;2022-10-31T05:37:39;130.88;;;22.20;;
41964;SDS011;50120;53.250;8.702;2022-10-31T05:40:06;132.60;;;24.83;;
41964;SDS011;50120;53.250;8.702;2022-10-31T05:42:33;49.78;;;22.40;;
41964;SDS011;50120;53.250;8.702;2022-10-31T05:44:59;56.80;;;22.60;;
41964;SDS011;50120;53.250;8.702;2022-10-31T05:47:24;46.47;;;20.55;;
41964;SDS011;50120;53.250;8.702;2022-10-31T05:49:50;86.03;;;22.23;;
41964;SDS011;50120;53.250;8.702;2022-10-31T05:52:16;46.58;;;19.55;;
41964;SDS011;50120;53.250;8.702;2022-10-31T05:54:42;103.07;;;20.92;;
41964;SDS011;50120;53.250;8.702;2022-10-31T05:57:08;94.05;;;20.95;;
41964;SDS011;50120;53.250;8.702;2022-10-31T05:59:34;92.80;;;21.02;;
41964;SDS011;50120;53.250;8.702;2022-10-31T06:01:59;52.20;;;19.33;;
41964;SDS011;50120;53.250;8.702;2022-10-31T06:04:25;81.03;;;19.55;;
41964;SDS011;50120;53.250;8.702;2022-10-31T06:06:51;71.85;;;19.98;;
41964;SDS011;50120;53.250;8.702;2022-10-31T06:09:16;59.55;;;19.58;;
41964;SDS011;50120;53.250;8.702;2022-10-31T06:11:42;61.65;;;18.92;;
41964;SDS011;50120;53.250;8.702;2022-10-31T06:14:08;87.80;;;22.00;;
41964;SDS011;50120;53.250;8.702;2022-10-31T06:16:34;106.80;;;19.50;;
41964;SDS011;50120;53.250;8.702;2022-10-31T06:18:59;80.70;;;18.92;;
41964;SDS011;50120;53.250;8.702;2022-10-31T06:21:27;42.53;;;19.23;;
41964;SDS011;50120;53.250;8.702;2022-10-31T06:23:53;37.65;;;18.88;;
41964;SDS011;50120;53.250;8.702;2022-10-31T06:26:19;65.75;;;19.45;;
41964;SDS011;50120;53.250;8.702;2022-10-31T06:28:44;45.75;;;19.08;;
41964;SDS011;50120;53.250;8.702;2022-10-31T06:31:10;78.50;;;18.25;;
41964;SDS011;50120;53.250;8.702;2022-10-31T06:33:36;42.20;;;18.38;;
41964;SDS011;50120;53.250;8.702;2022-10-31T06:36:02;51.97;;;19.42;;
41964;SDS011;50120;53.250;8.702;2022-10-31T06:38:28;34.05;;;17.80;;
41964;SDS011;50120;53.250;8.702;2022-10-31T06:40:54;50.53;;;18.88;;
41964;SDS011;50120;53.250;8.702;2022-10-31T06:43:20;55.65;;;18.17;;
41964;SDS011;50120;53.250;8.702;2022-10-31T06:45:49;46.25;;;19.45;;
41964;SDS011;50120;53.250;8.702;2022-10-31T06:48:15;35.70;;;18.42;;
41964;SDS011;50120;53.250;8.702;2022-10-31T06:50:41;31.27;;;19.25;;
41964;SDS011;50120;53.250;8.702;2022-10-31T06:53:07;31.73;;;18.95;;
41964;SDS011;50120;53.250;8.702;2022-10-31T06:55:35;43.75;;;18.80;;
41964;SDS011;50120;53.250;8.702;2022-10-31T06:58:00;54.75;;;18.40;;
41964;SDS011;50120;53.250;8.702;2022-10-31T07:00:27;36.22;;;18.35;;
41964;SDS011;50120;53.250;8.702;2022-10-31T07:02:54;74.30;;;21.30;;
41964;SDS011;50120;53.250;8.702;2022-10-31T07:05:25;38.17;;;19.55;;
41964;SDS011;50120;53.250;8.702;2022-10-31T07:07:55;38.25;;;21.02;;
41964;SDS011;50120;53.250;8.702;2022-10-31T07:10:26;36.13;;;20.00;;
41964;SDS011;50120;53.250;8.702;2022-10-31T07:12:56;37.15;;;20.95;;
41964;SDS011;50120;53.250;8.702;2022-10-31T07:15:27;45.10;;;21.17;;
41964;SDS011;50120;53.250;8.702;2022-10-31T07:17:59;45.88;;;20.00;;
41964;SDS011;50120;53.250;8.702;2022-10-31T07:20:26;51.45;;;20.52;;
41964;SDS011;50120;53.250;8.702;2022-10-31T07:22:52;38.70;;;19.10;;
41964;SDS011;50120;53.250;8.702;2022-10-31T07:25:18;52.58;;;19.48;;
41964;SDS011;50120;53.250;8.702;2022-10-31T07:27:44;36.50;;;20.27;;
41964;SDS011;50120;53.250;8.702;2022-10-31T07:30:10;36.58;;;19.20;;
41964;SDS011;50120;53.250;8.702;2022-10-31T07:32:40;32.90;;;19.38;;
41964;SDS011;50120;53.250;8.702;2022-10-31T07:35:10;59.75;;;18.80;;
41964;SDS011;50120;53.250;8.702;2022-10-31T07:37:37;66.50;;;18.52;;
41964;SDS011;50120;53.250;8.702;2022-10-31T07:40:03;57.80;;;18.80;;
41964;SDS011;50120;53.250;8.702;2022-10-31T07:45:08;40.22;;;18.23;;
41964;SDS011;50120;53.250;8.702;2022-10-31T07:47:42;27.88;;;18.92;;
41964;SDS011;50120;53.250;8.702;2022-10-31T07:50:13;34.13;;;19.35;;
41964;SDS011;50120;53.250;8.702;2022-10-31T07:52:40;35.17;;;18.45;;
41964;SDS011;50120;53.250;8.702;2022-10-31T07:55:06;44.80;;;21.08;;
41964;SDS011;50120;53.250;8.702;2022-10-31T07:57:32;62.90;;;21.90;;
41964;SDS011;50120;53.250;8.702;2022-10-31T07:59:58;51.33;;;21.35;;
41964;SDS011;50120;53.250;8.702;2022-10-31T08:02:24;42.15;;;21.42;;
41964;SDS011;50120;53.250;8.702;2022-10-31T08:04:51;38.08;;;20.10;;
41964;SDS011;50120;53.250;8.702;2022-10-31T08:07:17;32.40;;;19.13;;
41964;SDS011;50120;53.250;8.702;2022-10-31T08:09:43;29.60;;;19.42;;
41964;SDS011;50120;53.250;8.702;2022-10-31T08:12:08;67.22;;;21.05;;
41964;SDS011;50120;53.250;8.702;2022-10-31T08:14:34;35.13;;;19.88;;
41964;SDS011;50120;53.250;8.702;2022-10-31T08:17:00;28.65;;;18.65;;
41964;SDS011;50120;53.250;8.702;2022-10-31T08:19:25;35.38;;;19.17;;
41964;SDS011;50120;53.250;8.702;2022-10-31T08:21:51;29.25;;;18.48;;
41964;SDS011;50120;53.250;8.702;2022-10-31T08:24:19;35.33;;;19.85;;
41964;SDS011;50120;53.250;8.702;2022-10-31T08:26:48;37.08;;;19.23;;
41964;SDS011;50120;53.250;8.702;2022-10-31T08:29:14;88.72;;;19.58;;
41964;SDS011;50120;53.250;8.702;2022-10-31T08:31:40;41.90;;;19.38;;
41964;SDS011;50120;53.250;8.702;2022-10-31T08:34:06;29.95;;;18.08;;
41964;SDS011;50120;53.250;8.702;2022-10-31T08:36:32;48.85;;;18.95;;
41964;SDS011;50120;53.250;8.702;2022-10-31T08:38:58;39.13;;;19.92;;
41964;SDS011;50120;53.250;8.702;2022-10-31T08:41:24;41.17;;;18.65;;
41964;SDS011;50120;53.250;8.702;2022-10-31T08:43:49;32.50;;;18.02;;
41964;SDS011;50120;53.250;8.702;2022-10-31T08:46:15;52.60;;;18.83;;
41964;SDS011;50120;53.250;8.702;2022-10-31T08:48:41;38.63;;;19.17;;
41964;SDS011;50120;53.250;8.702;2022-10-31T08:51:07;40.75;;;20.30;;
41964;SDS011;50120;53.250;8.702;2022-10-31T08:53:34;51.67;;;20.25;;
41964;SDS011;50120;53.250;8.702;2022-10-31T08:56:00;45.42;;;18.95;;
41964;SDS011;50120;53.250;8.702;2022-10-31T08:58:26;42.17;;;19.85;;
41964;SDS011;50120;53.250;8.702;2022-10-31T09:00:52;39.13;;;19.40;;
41964;SDS011;50120;53.250;8.702;2022-10-31T09:03:22;93.25;;;24.13;;
41964;SDS011;50120;53.250;8.702;2022-10-31T09:05:55;68.25;;;22.55;;
41964;SDS011;50120;53.250;8.702;2022-10-31T09:08:24;91.80;;;22.52;;
41964;SDS011;50120;53.250;8.702;2022-10-31T09:10:50;62.08;;;23.67;;
41964;SDS011;50120;53.250;8.702;2022-10-31T09:13:17;38.75;;;21.58;;
41964;SDS011;50120;53.250;8.702;2022-10-31T09:15:45;87.50;;;26.25;;
41964;SDS011;50120;53.250;8.702;2022-10-31T09:18:12;59.42;;;24.88;;
41964;SDS011;50120;53.250;8.702;2022-10-31T09:20:40;43.47;;;24.27;;
41964;SDS011;50120;53.250;8.702;2022-10-31T09:23:10;56.35;;;26.45;;
41964;SDS011;50120;53.250;8.702;2022-10-31T09:25:40;69.50;;;28.77;;
41964;SDS011;50120;53.250;8.702;2022-10-31T09:28:08;53.63;;;26.33;;
41964;SDS011;50120;53.250;8.702;2022-10-31T09:30:35;59.78;;;28.60;;
41964;SDS011;50120;53.250;8.702;2022-10-31T09:33:03;52.90;;;26.17;;
41964;SDS011;50120;53.250;8.702;2022-10-31T09:35:34;65.65;;;29.30;;
41964;SDS011;50120;53.250;8.702;2022-10-31T09:38:10;54.72;;;26.38;;
41964;SDS011;50120;53.250;8.702;2022-10-31T09:40:41;55.33;;;26.00;;
41964;SDS011;50120;53.250;8.702;2022-10-31T09:51:37;48.45;;;25.25;;
41964;SDS011;50120;53.250;8.702;2022-10-31T09:54:31;51.60;;;26.70;;
41964;SDS011;50120;53.250;8.702;2022-10-31T09:57:14;55.25;;;26.13;;
41964;SDS011;50120;53.250;8.702;2022-10-31T09:59:43;62.88;;;28.63;;
41964;SDS011;50120;53.250;8.702;2022-10-31T10:02:20;61.25;;;28.02;;
41964;SDS011;50120;53.250;8.702;2022-10-31T10:05:14;57.58;;;27.40;;
41964;SDS011;50120;53.250;8.702;2022-10-31T10:08:22;61.95;;;28.90;;
41964;SDS011;50120;53.250;8.702;2022-10-31T10:19:32;52.38;;;27.52;;
41964;SDS011;50120;53.250;8.702;2022-10-31T10:22:15;55.10;;;27.10;;
41964;SDS011;50120;53.250;8.702;2022-10-31T10:30:50;42.78;;;24.67;;
41964;SDS011;50120;53.250;8.702;2022-10-31T10:33:15;46.15;;;23.25;;
41964;SDS011;50120;53.250;8.702;2022-10-31T10:35:47;42.13;;;23.65;;
41964;SDS011;50120;53.250;8.702;2022-10-31T10:38:29;39.88;;;24.20;;
41964;SDS011;50120;53.250;8.702;2022-10-31T10:41:19;76.38;;;26.70;;
41964;SDS011;50120;53.250;8.702;2022-10-31T10:43:49;48.95;;;26.17;;
41964;SDS011;50120;53.250;8.702;2022-10-31T10:46:27;57.00;;;29.13;;
41964;SDS011;50120;53.250;8.702;2022-10-31T10:51:58;68.45;;;30.80;;
41964;SDS011;50120;53.250;8.702;2022-10-31T11:00:37;88.03;;;30.88;;
41964;SDS011;50120;53.250;8.702;2022-10-31T11:03:05;69.90;;;30.92;;
41964;SDS011;50120;53.250;8.702;2022-10-31T11:05:51;70.88;;;31.33;;
41964;SDS011;50120;53.250;8.702;2022-10-31T11:08:29;66.33;;;31.00;;
41964;SDS011;50120;53.250;8.702;2022-10-31T11:11:04;95.80;;;39.10;;
41964;SDS011;50120;53.250;8.702;2022-10-31T11:13:35;79.43;;;34.22;;
41964;SDS011;50120;53.250;8.702;2022-10-31T11:16:09;73.28;;;34.35;;
41964;SDS011;50120;53.250;8.702;2022-10-31T11:18:41;71.50;;;31.70;;
41964;SDS011;50120;53.250;8.702;2022-10-31T11:21:30;89.40;;;29.75;;
41964;SDS011;50120;53.250;8.702;2022-10-31T11:24:02;61.50;;;28.65;;
41964;SDS011;50120;53.250;8.702;2022-10-31T11:26:29;62.35;;;29.58;;
41964;SDS011;50120;53.250;8.702;2022-10-31T11:28:58;75.75;;;31.33;;
41964;SDS011;50120;53.250;8.702;2022-10-31T11:31:24;81.45;;;32.20;;
41964;SDS011;50120;53.250;8.702;2022-10-31T11:33:55;80.38;;;31.27;;
41964;SDS011;50120;53.250;8.702;2022-10-31T11:36:29;74.80;;;31.02;;
41964;SDS011;50120;53.250;8.702;2022-10-31T11:38:57;71.22;;;31.50;;
41964;SDS011;50120;53.250;8.702;2022-10-31T11:41:32;84.53;;;33.30;;
41964;SDS011;50120;53.250;8.702;2022-10-31T11:44:05;55.42;;;23.23;;
41964;SDS011;50120;53.250;8.702;2022-10-31T11:46:48;81.25;;;33.05;;
41964;SDS011;50120;53.250;8.702;2022-10-31T11:49:23;65.40;;;29.83;;
41964;SDS011;50120;53.250;8.702;2022-10-31T11:51:54;64.97;;;29.42;;
41964;SDS011;50120;53.250;8.702;2022-10-31T11:54:26;77.47;;;32.05;;
41964;SDS011;50120;53.250;8.702;2022-10-31T11:56:57;71.13;;;32.08;;
41964;SDS011;50120;53.250;8.702;2022-10-31T12:01:52;56.33;;;29.23;;
41964;SDS011;50120;53.250;8.702;2022-10-31T12:04:19;63.85;;;29.35;;
41964;SDS011;50120;53.250;8.702;2022-10-31T12:07:20;58.35;;;28.25;;
41964;SDS011;50120;53.250;8.702;2022-10-31T12:09:45;61.38;;;29.02;;
41964;SDS011;50120;53.250;8.702;2022-10-31T12:15:03;54.38;;;27.23;;
41964;SDS011;50120;53.250;8.702;2022-10-31T12:23:33;58.10;;;29.35;;
41964;SDS011;50120;53.250;8.702;2022-10-31T12:31:55;57.17;;;30.52;;
41964;SDS011;50120;53.250;8.702;2022-10-31T12:34:51;59.85;;;30.27;;
41964;SDS011;50120;53.250;8.702;2022-10-31T12:37:31;57.33;;;31.40;;
41964;SDS011;50120;53.250;8.702;2022-10-31T12:45:56;62.40;;;33.15;;
41964;SDS011;50120;53.250;8.702;2022-10-31T12:59:50;66.85;;;34.50;;
41964;SDS011;50120;53.250;8.702;2022-10-31T13:02:28;62.75;;;33.53;;
41964;SDS011;50120;53.250;8.702;2022-10-31T13:08:04;59.90;;;30.92;;
41964;SDS011;50120;53.250;8.702;2022-10-31T13:10:40;59.17;;;30.88;;
41964;SDS011;50120;53.250;8.702;2022-10-31T13:13:16;57.28;;;31.13;;
41964;SDS011;50120;53.250;8.702;2022-10-31T13:15:56;58.65;;;31.02;;
41964;SDS011;50120;53.250;8.702;2022-10-31T13:18:38;55.42;;;30.88;;
41964;SDS011;50120;53.250;8.702;2022-10-31T13:21:09;58.30;;;30.60;;
41964;SDS011;50120;53.250;8.702;2022-10-31T13:23:41;54.58;;;29.33;;
41964;SDS011;50120;53.250;8.702;2022-10-31T13:26:54;52.03;;;27.67;;
41964;SDS011;50120;53.250;8.702;2022-10-31T13:31:56;54.30;;;26.80;;
41964;SDS011;50120;53.250;8.702;2022-10-31T13:34:55;51.30;;;26.88;;
41964;SDS011;50120;53.250;8.702;2022-10-31T13:37:34;55.15;;;29.40;;
41964;SDS011;50120;53.250;8.702;2022-10-31T13:45:18;55.75;;;27.33;;
41964;SDS011;50120;53.250;8.702;2022-10-31T13:48:18;51.55;;;25.40;;
41964;SDS011;50120;53.250;8.702;2022-10-31T13:50:59;50.25;;;24.25;;
41964;SDS011;50120;53.250;8.702;2022-10-31T13:56:14;47.97;;;24.45;;
41964;SDS011;50120;53.250;8.702;2022-10-31T13:58:54;58.45;;;28.63;;
41964;SDS011;50120;53.250;8.702;2022-10-31T14:01:22;58.28;;;26.17;;
41964;SDS011;50120;53.250;8.702;2022-10-31T14:03:59;52.65;;;26.60;;
41964;SDS011;50120;53.250;8.702;2022-10-31T14:06:47;53.95;;;25.05;;
41964;SDS011;50120;53.250;8.702;2022-10-31T14:09:26;57.25;;;27.40;;
41964;SDS011;50120;53.250;8.702;2022-10-31T14:11:59;60.30;;;27.25;;
41964;SDS011;50120;53.250;8.702;2022-10-31T14:15:20;54.88;;;27.70;;
41964;SDS011;50120;53.250;8.702;2022-10-31T14:17:26;51.80;;;26.65;;
41964;SDS011;50120;53.250;8.702;2022-10-31T14:22:35;56.30;;;26.33;;
41964;SDS011;50120;53.250;8.702;2022-10-31T14:25:24;52.80;;;26.38;;
41964;SDS011;50120;53.250;8.702;2022-10-31T14:27:49;53.33;;;26.30;;
41964;SDS011;50120;53.250;8.702;2022-10-31T14:30:18;58.35;;;26.75;;
41964;SDS011;50120;53.250;8.702;2022-10-31T14:32:51;63.85;;;28.10;;
41964;SDS011;50120;53.250;8.702;2022-10-31T14:35:18;59.60;;;28.30;;
41964;SDS011;50120;53.250;8.702;2022-10-31T14:37:54;58.95;;;28.08;;
41964;SDS011;50120;53.250;8.702;2022-10-31T14:43:44;64.73;;;28.93;;
41964;SDS011;50120;53.250;8.702;2022-10-31T14:51:53;54.95;;;26.90;;
41964;SDS011;50120;53.250;8.702;2022-10-31T14:54:25;51.60;;;26.27;;
41964;SDS011;50120;53.250;8.702;2022-10-31T14:57:16;61.88;;;26.98;;
41964;SDS011;50120;53.250;8.702;2022-10-31T14:59:52;58.20;;;27.17;;
41964;SDS011;50120;53.250;8.702;2022-10-31T15:02:37;53.38;;;26.17;;
41964;SDS011;50120;53.250;8.702;2022-10-31T15:05:14;55.08;;;24.65;;
41964;SDS011;50120;53.250;8.702;2022-10-31T15:07:54;58.95;;;26.52;;
41964;SDS011;50120;53.250;8.702;2022-10-31T15:10:23;56.80;;;24.98;;
41964;SDS011;50120;53.250;8.702;2022-10-31T15:12:54;61.17;;;25.65;;
41964;SDS011;50120;53.250;8.702;2022-10-31T15:15:25;62.20;;;27.05;;
41964;SDS011;50120;53.250;8.702;2022-10-31T15:17:58;67.93;;;32.08;;
41964;SDS011;50120;53.250;8.702;2022-10-31T15:20:25;54.53;;;26.33;;
41964;SDS011;50120;53.250;8.702;2022-10-31T15:22:53;52.20;;;24.70;;
41964;SDS011;50120;53.250;8.702;2022-10-31T15:25:22;59.35;;;27.05;;
41964;SDS011;50120;53.250;8.702;2022-10-31T15:27:51;54.65;;;26.17;;
41964;SDS011;50120;53.250;8.702;2022-10-31T15:32:44;56.65;;;25.98;;
41964;SDS011;50120;53.250;8.702;2022-10-31T15:35:14;59.25;;;25.80;;
41964;SDS011;50120;53.250;8.702;2022-10-31T15:37:51;55.88;;;25.10;;
41964;SDS011;50120;53.250;8.702;2022-10-31T15:40:18;57.78;;;26.88;;
41964;SDS011;50120;53.250;8.702;2022-10-31T15:42:56;61.30;;;27.20;;
41964;SDS011;50120;53.250;8.702;2022-10-31T15:45:28;61.25;;;25.92;;
41964;SDS011;50120;53.250;8.702;2022-10-31T15:48:02;52.70;;;23.08;;
41964;SDS011;50120;53.250;8.702;2022-10-31T15:50:40;60.00;;;24.95;;
41964;SDS011;50120;53.250;8.702;2022-10-31T15:53:24;53.47;;;23.60;;
41964;SDS011;50120;53.250;8.702;2022-10-31T15:55:56;56.65;;;22.67;;
41964;SDS011;50120;53.250;8.702;2022-10-31T15:58:27;58.53;;;21.63;;
41964;SDS011;50120;53.250;8.702;2022-10-31T16:01:36;49.88;;;20.75;;
41964;SDS011;50120;53.250;8.702;2022-10-31T16:06:34;50.47;;;21.13;;
41964;SDS011;50120;53.250;8.702;2022-10-31T16:09:00;49.38;;;21.25;;
41964;SDS011;50120;53.250;8.702;2022-10-31T16:16:17;56.85;;;22.33;;
41964;SDS011;50120;53.250;8.702;2022-10-31T16:18:45;54.58;;;22.65;;
41964;SDS011;50120;53.250;8.702;2022-10-31T16:21:11;54.83;;;20.92;;
41964;SDS011;50120;53.250;8.702;2022-10-31T16:23:38;47.60;;;20.50;;
41964;SDS011;50120;53.250;8.702;2022-10-31T16:26:09;49.05;;;19.92;;
41964;SDS011;50120;53.250;8.702;2022-10-31T16:28:39;51.35;;;20.85;;
41964;SDS011;50120;53.250;8.702;2022-10-31T16:31:15;54.50;;;20.73;;
41964;SDS011;50120;53.250;8.702;2022-10-31T16:33:40;48.35;;;20.70;;
41964;SDS011;50120;53.250;8.702;2022-10-31T16:36:29;55.10;;;19.98;;
41964;SDS011;50120;53.250;8.702;2022-10-31T16:38:56;46.35;;;19.65;;
41964;SDS011;50120;53.250;8.702;2022-10-31T16:41:23;49.75;;;20.02;;
41964;SDS011;50120;53.250;8.702;2022-10-31T16:43:50;48.03;;;19.65;;
41964;SDS011;50120;53.250;8.702;2022-10-31T16:46:23;53.13;;;20.65;;
41964;SDS011;50120;53.250;8.702;2022-10-31T16:48:50;48.53;;;19.15;;
41964;SDS011;50120;53.250;8.702;2022-10-31T16:51:17;57.13;;;21.42;;
41964;SDS011;50120;53.250;8.702;2022-10-31T16:53:43;53.22;;;20.60;;
41964;SDS011;50120;53.250;8.702;2022-10-31T16:56:18;51.75;;;19.98;;